createdAt,value
2022-08-04T00:01:12.423Z,22.72
2022-08-04T00:03:46.287Z,22.69
2022-08-04T00:06:26.370Z,22.59
2022-08-04T00:08:58.781Z,22.28
2022-08-04T00:11:32.579Z,22.47
2022-08-04T00:14:06.003Z,22.56
2022-08-04T00:16:39.884Z,22.66
2022-08-04T00:19:13.319Z,22.66
2022-08-04T00:21:49.700Z,22.61
2022-08-04T00:24:19.708Z,22.52
2022-08-04T00:26:50.024Z,22.50
2022-08-04T00:29:18.989Z,22.43
2022-08-04T00:31:56.905Z,22.42
2022-08-04T00:34:28.536Z,22.18
2022-08-04T00:36:59.749Z,22.36
2022-08-04T00:39:29.865Z,22.40
2022-08-04T00:42:28.692Z,22.43
2022-08-04T00:45:28.446Z,22.52
2022-08-04T00:48:10.947Z,22.50
2022-08-04T00:50:46.784Z,22.47
2022-08-04T00:53:27.385Z,22.47
2022-08-04T00:56:23.669Z,22.47
2022-08-04T00:59:05.568Z,22.52
2022-08-04T01:01:49.729Z,22.54
2022-08-04T01:04:26.096Z,22.53
2022-08-04T01:07:12.453Z,22.74
2022-08-04T01:09:54.283Z,22.79
2022-08-04T01:12:53.346Z,22.83
2022-08-04T01:15:59.911Z,22.84
2022-08-04T01:18:29.878Z,22.88
2022-08-04T01:21:25.372Z,22.82
2022-08-04T01:24:17.128Z,22.96
2022-08-04T01:26:58.335Z,23.09
2022-08-04T01:29:46.783Z,23.20
2022-08-04T01:32:25.318Z,23.26
2022-08-04T01:35:07.837Z,23.34
2022-08-04T01:38:02.484Z,23.37
2022-08-04T01:40:48.747Z,22.68
2022-08-04T01:43:18.853Z,23.43
2022-08-04T01:45:53.012Z,23.46
2022-08-04T01:48:26.690Z,23.28
2022-08-04T01:50:58.612Z,23.53
2022-08-04T01:53:32.774Z,23.41
2022-08-04T01:56:03.930Z,23.64
2022-08-04T01:58:34.636Z,23.64
2022-08-04T02:01:08.854Z,23.57
2022-08-04T02:04:20.504Z,23.67
2022-08-04T02:06:34.046Z,23.66
2022-08-04T02:09:23.936Z,23.70
2022-08-04T02:12:04.684Z,23.58
2022-08-04T02:14:43.460Z,23.67
2022-08-04T02:17:16.371Z,23.63
2022-08-04T02:20:03.037Z,23.66
2022-08-04T02:22:34.637Z,23.70
2022-08-04T02:25:09.376Z,23.76
2022-08-04T02:27:59.991Z,23.79
2022-08-04T02:30:35.406Z,23.84
2022-08-04T02:33:08.973Z,23.91
2022-08-04T02:35:40.668Z,23.96
2022-08-04T02:38:18.418Z,23.98
2022-08-04T02:41:00.321Z,23.98
2022-08-04T02:43:51.957Z,23.73
2022-08-04T02:46:22.167Z,24.05
2022-08-04T02:48:54.618Z,24.07
2022-08-04T02:51:29.482Z,24.08
2022-08-04T02:53:59.542Z,24.09
2022-08-04T02:56:31.811Z,24.11
2022-08-04T02:59:03.688Z,24.15
2022-08-04T03:01:34.126Z,24.16
2022-08-04T03:04:34.452Z,24.14
2022-08-04T03:07:30.909Z,24.12
2022-08-04T03:10:38.062Z,24.11
2022-08-04T03:13:40.003Z,24.12
2022-08-04T03:16:38.891Z,24.19
2022-08-04T03:19:40.451Z,24.25
2022-08-04T03:23:06.299Z,24.30
2022-08-04T03:26:02.933Z,23.40
2022-08-04T03:29:08.633Z,24.34
2022-08-04T03:32:08.663Z,24.35
2022-08-04T03:34:54.102Z,24.38
2022-08-04T03:37:48.527Z,24.40
2022-08-04T03:40:36.665Z,24.44
2022-08-04T03:43:59.744Z,24.42
2022-08-04T03:46:56.076Z,24.39
2022-08-04T03:49:54.921Z,24.33
2022-08-04T03:53:02.555Z,24.35
2022-08-04T03:55:55.645Z,24.37
2022-08-04T03:59:01.344Z,24.40
2022-08-04T04:02:06.555Z,24.42
2022-08-04T04:05:01.757Z,24.39
2022-08-04T04:08:02.031Z,24.40
2022-08-04T04:10:54.158Z,24.38
2022-08-04T04:13:39.260Z,23.77
2022-08-04T04:16:30.485Z,24.43
2022-08-04T04:19:34.501Z,24.35
2022-08-04T04:22:26.307Z,24.30
2022-08-04T04:25:15.684Z,24.28
2022-08-04T04:28:45.866Z,24.06
2022-08-04T04:31:02.612Z,24.28
2022-08-04T04:33:45.715Z,24.27
2022-08-04T04:36:20.808Z,24.26
2022-08-04T04:39:19.533Z,24.30
2022-08-04T04:42:03.675Z,23.61
2022-08-04T04:44:57.554Z,24.33
2022-08-04T04:48:07.650Z,24.25
2022-08-04T04:50:42.445Z,24.18
2022-08-04T04:53:19.696Z,24.19
2022-08-04T04:56:05.194Z,24.16
2022-08-04T04:58:36.846Z,23.97
2022-08-04T05:01:27.223Z,24.16
2022-08-04T05:04:13.331Z,24.15
2022-08-04T05:06:59.796Z,24.20
2022-08-04T05:09:39.047Z,24.23
2022-08-04T05:14:30.962Z,24.20
2022-08-04T05:15:37.587Z,23.90
2022-08-04T05:18:11.827Z,24.07
2022-08-04T05:20:43.674Z,24.05
2022-08-04T05:23:17.239Z,24.05
2022-08-04T05:25:59.014Z,24.07
2022-08-04T05:28:35.722Z,24.04
2022-08-04T05:31:07.855Z,23.38
2022-08-04T05:33:51.605Z,24.01
2022-08-04T05:36:40.001Z,23.99
2022-08-04T05:39:13.584Z,24.00
2022-08-04T05:41:46.172Z,24.10
2022-08-04T05:44:20.311Z,24.16
2022-08-04T05:46:54.063Z,24.04
2022-08-04T05:49:24.547Z,24.30
2022-08-04T05:51:54.303Z,24.37
2022-08-04T05:54:23.706Z,24.47
2022-08-04T05:56:53.152Z,24.32
2022-08-04T05:59:25.916Z,24.59
2022-08-04T06:01:58.340Z,24.63
2022-08-04T06:04:32.803Z,24.68
2022-08-04T06:07:01.771Z,24.75
2022-08-04T06:09:31.422Z,24.94
2022-08-04T06:12:04.288Z,25.18
2022-08-04T06:14:41.031Z,25.56
2022-08-04T06:18:32.242Z,25.91
2022-08-04T06:20:19.483Z,26.20
2022-08-04T06:22:55.431Z,26.87
2022-08-04T06:25:27.058Z,27.29
2022-08-04T06:27:57.945Z,27.94
2022-08-04T06:30:29.924Z,28.46
2022-08-04T06:33:03.911Z,29.09
2022-08-04T06:35:34.812Z,29.55
2022-08-04T06:38:04.899Z,29.55
2022-08-04T06:40:35.462Z,29.55
2022-08-04T06:43:08.067Z,30.77
2022-08-04T06:45:42.652Z,31.12
2022-08-04T06:48:14.722Z,31.40
2022-08-04T06:51:27.654Z,31.51
2022-08-04T06:53:34.630Z,31.80
2022-08-04T06:56:04.001Z,32.18
2022-08-04T06:58:34.661Z,32.42
2022-08-04T07:01:05.092Z,32.64
2022-08-04T07:03:34.343Z,32.96
2022-08-04T07:06:06.003Z,33.18
2022-08-04T07:08:37.533Z,33.26
2022-08-04T07:11:07.394Z,33.58
2022-08-04T07:13:39.797Z,33.68
2022-08-04T07:16:15.605Z,33.92
2022-08-04T07:18:44.733Z,34.14
2022-08-04T07:21:25.406Z,34.48
2022-08-04T07:23:54.419Z,34.72
2022-08-04T07:26:29.789Z,34.90
2022-08-04T07:28:59.902Z,34.89
2022-08-04T07:31:34.281Z,34.93
2022-08-04T07:34:17.008Z,35.07
2022-08-04T07:36:53.277Z,35.16
2022-08-04T07:39:28.465Z,35.23
2022-08-04T07:42:01.725Z,35.35
2022-08-04T07:44:32.651Z,35.63
2022-08-04T07:47:04.191Z,35.72
2022-08-04T07:49:56.447Z,35.65
2022-08-04T07:52:23.192Z,35.56
2022-08-04T07:54:53.097Z,35.60
2022-08-04T07:57:40.448Z,35.51
2022-08-04T08:00:12.427Z,35.49
2022-08-04T08:02:43.448Z,35.86
2022-08-04T08:05:15.001Z,35.78
2022-08-04T08:07:50.050Z,35.72
2022-08-04T08:10:23.010Z,35.28
2022-08-04T08:12:53.288Z,34.91
2022-08-04T08:15:23.030Z,34.88
2022-08-04T08:17:58.640Z,34.67
2022-08-04T08:20:31.273Z,34.31
2022-08-04T08:23:00.952Z,34.27
2022-08-04T08:25:31.788Z,34.02
2022-08-04T08:28:00.981Z,33.96
2022-08-04T08:30:31.434Z,34.05
2022-08-04T08:33:06.376Z,33.98
2022-08-04T08:35:46.902Z,33.99
2022-08-04T08:38:30.728Z,34.01
2022-08-04T08:41:23.380Z,33.99
2022-08-04T08:44:36.386Z,33.85
2022-08-04T08:47:17.759Z,33.70
2022-08-04T08:50:04.784Z,33.65
2022-08-04T08:52:57.311Z,33.60
2022-08-04T08:55:42.196Z,33.55
2022-08-04T08:58:33.268Z,33.67
2022-08-04T09:01:13.812Z,33.54
2022-08-04T09:04:04.012Z,33.45
2022-08-04T09:07:12.885Z,33.69
2022-08-04T09:09:54.930Z,33.72
2022-08-04T09:12:29.878Z,33.76
2022-08-04T09:15:06.960Z,33.88
2022-08-04T09:17:42.682Z,34.00
2022-08-04T09:20:18.701Z,34.14
2022-08-04T09:22:53.297Z,33.97
2022-08-04T09:25:27.435Z,34.12
2022-08-04T09:28:04.257Z,34.29
2022-08-04T09:30:43.188Z,34.52
2022-08-04T09:33:45.659Z,34.62
2022-08-04T09:36:26.337Z,34.69
2022-08-04T09:39:11.210Z,34.87
2022-08-04T09:41:53.337Z,35.03
2022-08-04T09:44:49.242Z,35.17
2022-08-04T09:47:39.675Z,35.26
2022-08-04T09:50:31.483Z,35.35
2022-08-04T09:53:09.814Z,35.60
2022-08-04T09:55:53.806Z,35.78
2022-08-04T09:58:50.105Z,35.91
2022-08-04T10:01:24.603Z,35.99
2022-08-04T10:03:57.878Z,36.16
2022-08-04T10:07:11.125Z,36.28
2022-08-04T10:10:00.110Z,36.40
2022-08-04T10:12:43.428Z,36.38
2022-08-04T10:15:16.593Z,36.18
2022-08-04T10:18:02.291Z,36.43
2022-08-04T10:20:52.910Z,36.62
2022-08-04T10:23:55.082Z,36.70
2022-08-04T10:26:32.421Z,36.66
2022-08-04T10:29:07.254Z,36.98
2022-08-04T10:31:40.549Z,37.12
2022-08-04T10:34:14.089Z,37.29
2022-08-04T10:36:53.041Z,37.28
2022-08-04T10:39:43.126Z,37.26
2022-08-04T10:42:23.264Z,37.32
2022-08-04T10:45:13.184Z,37.39
2022-08-04T10:47:53.200Z,37.43
2022-08-04T10:50:25.826Z,37.00
2022-08-04T10:53:02.382Z,37.49
2022-08-04T10:56:07.288Z,37.48
2022-08-04T10:58:48.228Z,37.43
2022-08-04T11:02:01.436Z,37.45
2022-08-04T11:04:27.063Z,37.60
2022-08-04T11:07:00.527Z,37.67
2022-08-04T11:09:31.649Z,37.74
2022-08-04T11:12:08.609Z,37.72
2022-08-04T11:14:45.810Z,37.73
2022-08-04T11:17:22.612Z,37.85
2022-08-04T11:20:32.306Z,37.75
2022-08-04T11:23:07.627Z,37.57
2022-08-04T11:25:49.706Z,37.71
2022-08-04T11:28:32.275Z,37.87
2022-08-04T11:31:05.928Z,37.85
2022-08-04T11:33:45.754Z,37.99
2022-08-04T11:36:22.443Z,38.00
2022-08-04T11:39:01.736Z,38.05
2022-08-04T11:41:43.752Z,38.03
2022-08-04T11:44:20.258Z,38.00
2022-08-04T11:46:53.365Z,38.01
2022-08-04T11:49:56.052Z,38.04
2022-08-04T11:52:25.515Z,38.15
2022-08-04T11:54:55.871Z,38.24
2022-08-04T11:57:35.371Z,38.33
2022-08-04T12:00:10.474Z,38.35
2022-08-04T12:02:57.864Z,38.38
2022-08-04T12:05:36.716Z,38.34
2022-08-04T12:08:25.383Z,38.40
2022-08-04T12:11:08.025Z,38.26
2022-08-04T12:13:43.968Z,38.11
2022-08-04T12:16:18.541Z,37.98
2022-08-04T12:18:53.785Z,37.96
2022-08-04T12:21:33.248Z,37.98
2022-08-04T12:24:06.873Z,37.98
2022-08-04T12:26:44.374Z,37.78
2022-08-04T12:29:17.129Z,37.81
2022-08-04T12:31:50.750Z,37.80
2022-08-04T12:34:29.735Z,37.78
2022-08-04T12:37:06.419Z,37.76
2022-08-04T12:39:38.051Z,37.74
2022-08-04T12:42:34.792Z,37.77
2022-08-04T12:45:08.627Z,37.82
2022-08-04T12:47:39.537Z,37.79
2022-08-04T12:50:12.471Z,37.48
2022-08-04T12:53:06.385Z,37.67
2022-08-04T12:55:38.116Z,37.47
2022-08-04T12:58:42.232Z,37.50
2022-08-04T13:02:08.181Z,37.33
2022-08-04T13:04:02.554Z,37.44
2022-08-04T13:06:35.366Z,37.42
2022-08-04T13:09:09.409Z,37.39
2022-08-04T13:11:43.561Z,37.11
2022-08-04T13:14:26.581Z,37.05
2022-08-04T13:17:00.077Z,37.13
2022-08-04T13:19:29.865Z,37.24
2022-08-04T13:22:03.041Z,37.39
2022-08-04T13:24:56.311Z,37.56
2022-08-04T13:27:25.631Z,37.64
2022-08-04T13:30:03.567Z,37.46
2022-08-04T13:32:35.097Z,37.48
2022-08-04T13:35:06.280Z,37.48
2022-08-04T13:37:39.151Z,37.33
2022-08-04T13:40:14.278Z,37.46
2022-08-04T13:42:48.629Z,37.52
2022-08-04T13:45:21.904Z,37.44
2022-08-04T13:47:52.904Z,37.38
2022-08-04T13:50:26.504Z,37.45
2022-08-04T13:52:57.049Z,37.52
2022-08-04T13:55:31.222Z,37.59
2022-08-04T13:58:09.519Z,37.65
2022-08-04T14:00:48.238Z,37.48
2022-08-04T14:03:26.624Z,37.66
2022-08-04T14:06:12.134Z,37.62
2022-08-04T14:08:49.392Z,37.60
2022-08-04T14:12:06.386Z,37.62
2022-08-04T14:14:22.732Z,37.41
2022-08-04T14:17:03.560Z,37.57
2022-08-04T14:19:52.444Z,37.55
2022-08-04T14:22:37.987Z,37.42
2022-08-04T14:25:16.102Z,37.32
2022-08-04T14:27:49.296Z,37.22
2022-08-04T14:30:29.938Z,37.10
2022-08-04T14:34:01.699Z,37.02
2022-08-04T14:35:58.666Z,36.98
2022-08-04T14:38:43.642Z,36.93
2022-08-04T14:41:13.055Z,36.86
2022-08-04T14:43:52.229Z,36.87
2022-08-04T14:46:21.389Z,36.93
2022-08-04T14:49:10.280Z,36.97
2022-08-04T14:51:42.615Z,36.83
2022-08-04T14:54:18.135Z,36.72
2022-08-04T14:56:55.002Z,36.47
2022-08-04T14:59:26.489Z,36.65
2022-08-04T15:02:00.590Z,36.69
2022-08-04T15:04:32.675Z,36.65
2022-08-04T15:07:04.699Z,36.65
2022-08-04T15:09:35.074Z,36.58
2022-08-04T15:12:05.542Z,36.55
2022-08-04T15:14:38.390Z,36.47
2022-08-04T15:17:12.375Z,36.34
2022-08-04T15:19:58.504Z,36.30
2022-08-04T15:22:27.793Z,36.31
2022-08-04T15:24:56.967Z,36.31
2022-08-04T15:27:29.830Z,36.21
2022-08-04T15:30:04.023Z,35.84
2022-08-04T15:32:34.869Z,36.03
2022-08-04T15:35:04.891Z,35.93
2022-08-04T15:37:44.432Z,35.88
2022-08-04T15:40:16.550Z,35.86
2022-08-04T15:42:50.333Z,35.80
2022-08-04T15:46:02.300Z,35.74
2022-08-04T15:48:35.182Z,35.58
2022-08-04T15:51:08.631Z,35.50
2022-08-04T15:54:23.474Z,35.49
2022-08-04T15:57:01.629Z,35.38
2022-08-04T15:59:57.654Z,35.36
2022-08-04T16:02:41.233Z,35.26
2022-08-04T16:05:34.653Z,35.09
2022-08-04T16:08:11.865Z,34.88
2022-08-04T16:10:42.282Z,34.68
2022-08-04T16:13:14.098Z,34.62
2022-08-04T16:15:45.783Z,34.63
2022-08-04T16:18:26.772Z,34.54
2022-08-04T16:21:03.050Z,34.45
2022-08-04T16:24:02.307Z,34.37
2022-08-04T16:26:55.050Z,34.14
2022-08-04T16:29:43.510Z,33.93
2022-08-04T16:32:23.970Z,33.85
2022-08-04T16:35:00.456Z,33.83
2022-08-04T16:37:34.903Z,33.86
2022-08-04T16:40:34.063Z,33.86
2022-08-04T16:43:06.352Z,33.59
2022-08-04T16:45:43.219Z,33.07
2022-08-04T16:48:13.184Z,33.62
2022-08-04T16:50:56.322Z,33.47
2022-08-04T16:53:52.672Z,33.17
2022-08-04T16:56:19.065Z,33.38
2022-08-04T16:58:53.025Z,33.36
2022-08-04T17:01:33.002Z,33.29
2022-08-04T17:04:06.921Z,33.10
2022-08-04T17:06:39.307Z,33.12
2022-08-04T17:09:11.370Z,32.76
2022-08-04T17:11:40.599Z,32.96
2022-08-04T17:14:10.200Z,32.89
2022-08-04T17:16:41.327Z,32.80
2022-08-04T17:19:23.727Z,32.61
2022-08-04T17:22:04.057Z,32.38
2022-08-04T17:24:37.112Z,32.26
2022-08-04T17:28:19.101Z,32.12
2022-08-04T17:29:56.056Z,31.92
2022-08-04T17:32:25.252Z,31.87
2022-08-04T17:34:57.198Z,31.76
2022-08-04T17:37:38.161Z,31.72
2022-08-04T17:40:11.826Z,31.69
2022-08-04T17:42:42.002Z,31.67
2022-08-04T17:48:03.075Z,31.55
2022-08-04T17:50:36.046Z,31.47
2022-08-04T17:55:57.025Z,31.29
2022-08-04T17:58:26.922Z,31.22
2022-08-04T18:03:53.668Z,31.01
2022-08-04T18:09:22.854Z,30.93
2022-08-04T18:12:06.490Z,30.85
2022-08-04T18:14:49.188Z,30.75
2022-08-04T18:18:20.721Z,30.60
2022-08-04T18:20:26.035Z,30.44
2022-08-04T18:22:55.720Z,30.23
2022-08-04T18:25:50.386Z,30.39
2022-08-04T18:28:20.862Z,30.30
2022-08-04T18:30:56.266Z,30.22
2022-08-04T18:33:39.803Z,30.13
2022-08-04T18:36:33.752Z,30.01
2022-08-04T18:39:13.530Z,29.89
2022-08-04T18:42:00.959Z,29.78
2022-08-04T18:44:32.820Z,29.55
2022-08-04T18:47:23.083Z,29.46
2022-08-04T18:51:01.062Z,29.41
2022-08-04T18:52:45.627Z,29.30
2022-08-04T18:55:55.381Z,29.27
2022-08-04T18:58:07.086Z,29.19
2022-08-04T19:00:36.684Z,29.05
2022-08-04T19:03:06.464Z,28.91
2022-08-04T19:05:41.525Z,28.82
2022-08-04T19:08:33.087Z,28.72
2022-08-04T19:11:01.735Z,28.59
2022-08-04T19:13:58.090Z,28.43
2022-08-04T19:16:28.669Z,28.41
2022-08-04T19:18:57.964Z,28.43
2022-08-04T19:22:01.538Z,28.42
2022-08-04T19:24:31.345Z,28.40
2022-08-04T19:27:07.443Z,28.37
2022-08-04T19:29:48.412Z,28.35
2022-08-04T19:32:17.240Z,28.27
2022-08-04T19:34:47.850Z,28.26
2022-08-04T19:37:57.156Z,28.18
2022-08-04T19:40:12.709Z,28.17
2022-08-04T19:42:43.445Z,28.14
2022-08-04T19:45:15.793Z,28.14
2022-08-04T19:50:34.532Z,28.01
2022-08-04T19:53:04.181Z,27.95
2022-08-04T19:55:49.821Z,27.77
2022-08-04T19:58:21.698Z,27.83
2022-08-04T20:00:56.900Z,27.72
2022-08-04T20:04:09.048Z,27.70
2022-08-04T20:06:15.320Z,27.66
2022-08-04T20:08:48.573Z,27.62
2022-08-04T20:11:20.819Z,27.51
2022-08-04T20:13:54.456Z,27.56
2022-08-04T20:16:30.084Z,27.53
2022-08-04T20:19:03.768Z,27.47
2022-08-04T20:21:53.525Z,27.40
2022-08-04T20:24:37.620Z,27.32
2022-08-04T20:27:15.136Z,27.25
2022-08-04T20:29:49.422Z,27.19
2022-08-04T20:32:22.470Z,27.17
2022-08-04T20:34:52.231Z,27.11
2022-08-04T20:37:23.450Z,27.02
2022-08-04T20:39:56.031Z,27.01
2022-08-04T20:42:26.931Z,26.51
2022-08-04T20:44:57.299Z,26.90
2022-08-04T20:47:35.042Z,26.92
2022-08-04T20:50:09.062Z,26.86
2022-08-04T20:52:39.676Z,26.80
2022-08-04T20:55:10.163Z,26.76
2022-08-04T20:57:49.130Z,26.71
2022-08-04T21:00:29.822Z,26.65
2022-08-04T21:03:01.042Z,26.61
2022-08-04T21:05:31.643Z,26.37
2022-08-04T21:08:01.723Z,26.52
2022-08-04T21:10:30.996Z,26.50
2022-08-04T21:12:59.844Z,26.44
2022-08-04T21:15:58.716Z,26.43
2022-08-04T21:18:29.155Z,26.44
2022-08-04T21:20:58.345Z,26.42
2022-08-04T21:23:27.112Z,26.42
2022-08-04T21:26:02.017Z,26.45
2022-08-04T21:28:31.333Z,26.38
2022-08-04T21:31:02.346Z,26.36
2022-08-04T21:33:50.887Z,26.31
2022-08-04T21:36:21.567Z,26.00
2022-08-04T21:38:51.704Z,26.10
2022-08-04T21:41:24.630Z,25.93
2022-08-04T21:43:54.379Z,26.02
2022-08-04T21:46:24.630Z,26.04
2022-08-04T21:48:55.683Z,26.03
2022-08-04T21:51:57.839Z,25.93
2022-08-04T21:54:17.010Z,25.79
2022-08-04T21:56:50.676Z,25.74
2022-08-04T22:02:10.688Z,25.71
2022-08-04T22:04:44.298Z,25.67
2022-08-04T22:07:16.687Z,25.64
2022-08-04T22:10:02.550Z,25.58
2022-08-04T22:12:33.701Z,25.48
2022-08-04T22:15:23.299Z,25.43
2022-08-04T22:17:51.690Z,25.38
2022-08-04T22:20:27.806Z,25.32
2022-08-04T22:23:03.361Z,25.20
2022-08-04T22:25:37.650Z,25.09
2022-08-04T22:28:08.192Z,25.02
2022-08-04T22:30:39.056Z,25.00
2022-08-04T22:33:17.412Z,24.96
2022-08-04T22:35:49.925Z,24.98
2022-08-04T22:38:28.916Z,24.97
2022-08-04T22:41:08.397Z,24.89
2022-08-04T22:43:38.471Z,24.65
2022-08-04T22:46:09.152Z,24.80
2022-08-04T22:48:43.260Z,24.80
2022-08-04T22:51:14.322Z,24.70
2022-08-04T22:53:48.819Z,24.67
2022-08-04T22:56:38.572Z,24.62
2022-08-04T22:59:09.977Z,24.60
2022-08-04T23:02:00.061Z,24.56
2022-08-04T23:04:29.898Z,24.51
2022-08-04T23:07:00.565Z,24.46
2022-08-04T23:09:49.575Z,24.40
2022-08-04T23:12:25.757Z,24.36
2022-08-04T23:14:56.449Z,24.37
2022-08-04T23:17:27.360Z,24.01
2022-08-04T23:19:57.685Z,24.39
2022-08-04T23:22:42.049Z,24.37
2022-08-04T23:25:17.117Z,24.31
2022-08-04T23:27:50.396Z,24.24
2022-08-04T23:30:24.581Z,24.15
2022-08-04T23:32:54.656Z,24.16
2022-08-04T23:35:23.896Z,24.16
2022-08-04T23:37:56.712Z,23.98
2022-08-04T23:40:33.454Z,24.15
2022-08-04T23:43:17.410Z,23.99
2022-08-04T23:46:06.865Z,24.11
2022-08-04T23:48:36.874Z,24.08
2022-08-04T23:51:14.592Z,24.09
2022-08-04T23:54:01.864Z,24.12
2022-08-04T23:56:34.198Z,23.98
2022-08-04T23:59:04.430Z,24.15
